This is the latest recevied weather packets stored in our database for station/object N1HRK. If no packets are shown the sender has not sent any weather packets the latest 1 day(s).
| Time | Temp. | Humidity | Pressure | Rain* | Wind** | Luminosity | Snow |
|---|---|---|---|---|---|---|---|
| 1836274437 | 18.33° C | 55% | 1019.1 hPa | 0 mm | 1.34 m/s, 39° | - | - |
| 1836274286 | 18.33° C | 56% | 1019.1 hPa | 0 mm | 1.34 m/s, 37° | - | - |
| 1778052124 | 15° C | 85% | 1012 hPa | 0 mm | 3.58 m/s, 235° | - | - |
| 1778051522 | 15° C | 85% | 1011.9 hPa | 0 mm | 4.92 m/s, 246° | - | - |
| 1778050923 | 15° C | 85% | 1011.9 hPa | 0 mm | 1.79 m/s, 195° | - | - |
| 1778050323 | 14.44° C | 85% | 1011.9 hPa | 0 mm | 4.02 m/s, 249° | - | - |
| 1778049724 | 14.44° C | 85% | 1011.9 hPa | 0 mm | 3.58 m/s, 249° | - | - |
| 1778049124 | 14.44° C | 84% | 1011.9 hPa | 0 mm | 3.13 m/s, 256° | - | - |
| 1778048523 | 15° C | 84% | 1011.9 hPa | 0 mm | 2.24 m/s, 253° | - | - |
| 1778047924 | 15° C | 84% | 1012.1 hPa | 0 mm | 2.68 m/s, 250° | - | - |
| 1778047323 | 14.44° C | 84% | 1012 hPa | 0 mm | 3.58 m/s, 236° | - | - |
| 1778046724 | 14.44° C | 83% | 1012 hPa | 0 mm | 4.92 m/s, 249° | - | - |
| 1778046124 | 14.44° C | 83% | 1012.1 hPa | 0 mm | 2.68 m/s, 233° | - | - |
| 1778045524 | 14.44° C | 82% | 1012.3 hPa | 0 mm | 1.34 m/s, 298° | - | - |
| 1778044923 | 14.44° C | 82% | 1012.3 hPa | 0 mm | 2.68 m/s, 270° | - | - |
| 1778044323 | 15° C | 82% | 1012.3 hPa | 0 mm | 3.58 m/s, 257° | - | - |
| 1778043724 | 14.44° C | 82% | 1012.3 hPa | 0 mm | 4.92 m/s, 252° | - | - |
| 1778043124 | 14.44° C | 82% | 1012.6 hPa | 0 mm | 2.68 m/s, 262° | - | - |
| 1778042522 | 14.44° C | 82% | 1012.5 hPa | 0 mm | 2.68 m/s, 278° | - | - |
| 1778041923 | 14.44° C | 82% | 1012.4 hPa | 0 mm | 3.58 m/s, 256° | - | - |
| 1778041323 | 14.44° C | 82% | 1012.4 hPa | 0 mm | 5.36 m/s, 238° | - | - |
| 1778040723 | 14.44° C | 82% | 1012.3 hPa | 0 mm | 2.24 m/s, 294° | - | - |
| 1778040122 | 14.44° C | 81% | 1012.3 hPa | 0 mm | 3.13 m/s, 257° | - | - |
| 1778039554 | 15° C | 81% | 1012.3 hPa | 0 mm | 4.47 m/s, 248° | - | - |
| 1778039523 | 15° C | 81% | 1012.3 hPa | 0 mm | 4.47 m/s, 248° | - | - |
* Rain latest hour (hover to see other rain measurements)
** Current wind speed in m/s (hover to see current wind gust speed)